sensor_id;sensor_type;location;lat;lon;timestamp;temperature;humidity
69543;SHT31;56762;49.494;11.768;2023-01-10T00:02:08;5.23;88.34
69543;SHT31;56762;49.494;11.768;2023-01-10T00:04:38;5.19;88.44
69543;SHT31;56762;49.494;11.768;2023-01-10T00:07:06;5.18;87.74
69543;SHT31;56762;49.494;11.768;2023-01-10T00:09:34;5.13;87.89
69543;SHT31;56762;49.494;11.768;2023-01-10T00:12:02;5.11;88.28
69543;SHT31;56762;49.494;11.768;2023-01-10T00:14:47;4.96;88.79
69543;SHT31;56762;49.494;11.768;2023-01-10T00:17:15;5.03;88.69
69543;SHT31;56762;49.494;11.768;2023-01-10T00:19:51;5.02;88.54
69543;SHT31;56762;49.494;11.768;2023-01-10T00:22:19;4.99;88.45
69543;SHT31;56762;49.494;11.768;2023-01-10T00:24:51;4.89;88.65
69543;SHT31;56762;49.494;11.768;2023-01-10T00:27:18;4.95;88.57
69543;SHT31;56762;49.494;11.768;2023-01-10T00:29:49;5.00;88.24
69543;SHT31;56762;49.494;11.768;2023-01-10T00:32:20;4.99;87.84
69543;SHT31;56762;49.494;11.768;2023-01-10T00:34:48;5.05;87.74
69543;SHT31;56762;49.494;11.768;2023-01-10T00:37:18;5.00;87.87
69543;SHT31;56762;49.494;11.768;2023-01-10T00:39:46;4.99;87.52
69543;SHT31;56762;49.494;11.768;2023-01-10T00:42:14;5.00;87.65
69543;SHT31;56762;49.494;11.768;2023-01-10T00:44:56;5.02;87.83
69543;SHT31;56762;49.494;11.768;2023-01-10T00:47:24;5.05;87.39
69543;SHT31;56762;49.494;11.768;2023-01-10T00:49:52;5.05;87.12
69543;SHT31;56762;49.494;11.768;2023-01-10T00:52:21;5.06;87.30
69543;SHT31;56762;49.494;11.768;2023-01-10T00:54:49;5.02;87.62
69543;SHT31;56762;49.494;11.768;2023-01-10T00:57:18;5.08;87.25
69543;SHT31;56762;49.494;11.768;2023-01-10T00:59:46;5.05;87.15
69543;SHT31;56762;49.494;11.768;2023-01-10T01:02:14;5.05;87.58
69543;SHT31;56762;49.494;11.768;2023-01-10T01:04:42;5.05;87.30
69543;SHT31;56762;49.494;11.768;2023-01-10T01:07:10;5.08;87.62
69543;SHT31;56762;49.494;11.768;2023-01-10T01:09:40;5.16;86.89
69543;SHT31;56762;49.494;11.768;2023-01-10T01:12:21;5.16;87.07
69543;SHT31;56762;49.494;11.768;2023-01-10T01:14:49;5.19;87.13
69543;SHT31;56762;49.494;11.768;2023-01-10T01:17:17;5.18;86.97
69543;SHT31;56762;49.494;11.768;2023-01-10T01:19:45;5.12;87.14
69543;SHT31;56762;49.494;11.768;2023-01-10T01:22:13;5.12;87.28
69543;SHT31;56762;49.494;11.768;2023-01-10T01:24:43;5.18;86.86
69543;SHT31;56762;49.494;11.768;2023-01-10T01:27:11;5.16;86.76
69543;SHT31;56762;49.494;11.768;2023-01-10T01:29:39;5.16;87.16
69543;SHT31;56762;49.494;11.768;2023-01-10T01:32:09;5.13;87.50
69543;SHT31;56762;49.494;11.768;2023-01-10T01:34:37;5.18;86.67
69543;SHT31;56762;49.494;11.768;2023-01-10T01:37:05;5.22;86.97
69543;SHT31;56762;49.494;11.768;2023-01-10T01:39:34;5.20;86.95
69543;SHT31;56762;49.494;11.768;2023-01-10T01:42:03;5.18;87.15
69543;SHT31;56762;49.494;11.768;2023-01-10T01:44:34;5.18;86.84
69543;SHT31;56762;49.494;11.768;2023-01-10T01:47:05;5.19;87.14
69543;SHT31;56762;49.494;11.768;2023-01-10T01:49:37;5.12;87.26
69543;SHT31;56762;49.494;11.768;2023-01-10T01:52:10;5.15;87.47
69543;SHT31;56762;49.494;11.768;2023-01-10T01:54:38;5.16;87.16
69543;SHT31;56762;49.494;11.768;2023-01-10T01:57:11;5.15;86.95
69543;SHT31;56762;49.494;11.768;2023-01-10T01:59:42;5.16;87.16
69543;SHT31;56762;49.494;11.768;2023-01-10T02:02:14;5.23;87.19
69543;SHT31;56762;49.494;11.768;2023-01-10T02:04:47;5.24;86.91
69543;SHT31;56762;49.494;11.768;2023-01-10T02:07:18;5.27;86.97
69543;SHT31;56762;49.494;11.768;2023-01-10T02:09:49;5.40;86.18
69543;SHT31;56762;49.494;11.768;2023-01-10T02:12:19;5.32;86.11
69543;SHT31;56762;49.494;11.768;2023-01-10T02:14:49;5.30;86.33
69543;SHT31;56762;49.494;11.768;2023-01-10T02:17:17;5.30;86.34
69543;SHT31;56762;49.494;11.768;2023-01-10T02:19:50;5.29;86.34
69543;SHT31;56762;49.494;11.768;2023-01-10T02:31:59;5.32;86.52
69543;SHT31;56762;49.494;11.768;2023-01-10T02:34:35;5.37;86.34
69543;SHT31;56762;49.494;11.768;2023-01-10T02:37:13;5.33;86.80
69543;SHT31;56762;49.494;11.768;2023-01-10T02:39:48;5.27;87.38
69543;SHT31;56762;49.494;11.768;2023-01-10T02:42:24;5.29;87.41
69543;SHT31;56762;49.494;11.768;2023-01-10T02:44:59;5.30;86.74
69543;SHT31;56762;49.494;11.768;2023-01-10T02:47:35;5.30;87.17
69543;SHT31;56762;49.494;11.768;2023-01-10T02:53:10;5.36;86.53
69543;SHT31;56762;49.494;11.768;2023-01-10T02:55:52;5.34;86.98
69543;SHT31;56762;49.494;11.768;2023-01-10T02:58:32;5.40;86.69
69543;SHT31;56762;49.494;11.768;2023-01-10T03:01:13;5.36;87.10
69543;SHT31;56762;49.494;11.768;2023-01-10T03:03:50;5.33;87.39
69543;SHT31;56762;49.494;11.768;2023-01-10T03:06:22;5.33;87.36
69543;SHT31;56762;49.494;11.768;2023-01-10T03:08:59;5.32;86.69
69543;SHT31;56762;49.494;11.768;2023-01-10T03:11:30;5.33;86.81
69543;SHT31;56762;49.494;11.768;2023-01-10T03:14:15;5.34;87.05
69543;SHT31;56762;49.494;11.768;2023-01-10T03:16:49;5.34;86.39
69543;SHT31;56762;49.494;11.768;2023-01-10T03:19:24;5.36;86.52
69543;SHT31;56762;49.494;11.768;2023-01-10T03:21:56;5.36;86.58
69543;SHT31;56762;49.494;11.768;2023-01-10T03:24:28;5.39;86.34
69543;SHT31;56762;49.494;11.768;2023-01-10T03:27:00;5.37;86.15
69543;SHT31;56762;49.494;11.768;2023-01-10T03:29:33;5.36;86.41
69543;SHT31;56762;49.494;11.768;2023-01-10T03:32:05;5.34;86.38
69543;SHT31;56762;49.494;11.768;2023-01-10T03:34:37;5.36;86.39
69543;SHT31;56762;49.494;11.768;2023-01-10T03:37:11;5.33;86.56
69543;SHT31;56762;49.494;11.768;2023-01-10T03:39:49;5.32;86.30
69543;SHT31;56762;49.494;11.768;2023-01-10T03:42:22;5.27;86.59
69543;SHT31;56762;49.494;11.768;2023-01-10T03:44:58;5.32;86.63
69543;SHT31;56762;49.494;11.768;2023-01-10T03:47:31;5.33;86.87
69543;SHT31;56762;49.494;11.768;2023-01-10T03:50:05;5.33;87.02
69543;SHT31;56762;49.494;11.768;2023-01-10T03:52:34;5.36;86.69
69543;SHT31;56762;49.494;11.768;2023-01-10T03:55:05;5.46;86.25
69543;SHT31;56762;49.494;11.768;2023-01-10T03:57:34;5.40;86.45
69543;SHT31;56762;49.494;11.768;2023-01-10T04:00:03;5.42;86.77
69543;SHT31;56762;49.494;11.768;2023-01-10T04:02:32;5.40;85.89
69543;SHT31;56762;49.494;11.768;2023-01-10T04:04:59;5.42;85.73
69543;SHT31;56762;49.494;11.768;2023-01-10T04:07:29;5.40;86.60
69543;SHT31;56762;49.494;11.768;2023-01-10T04:09:57;5.37;86.61
69543;SHT31;56762;49.494;11.768;2023-01-10T04:12:25;5.36;86.12
69543;SHT31;56762;49.494;11.768;2023-01-10T04:14:53;5.33;86.48
69543;SHT31;56762;49.494;11.768;2023-01-10T04:17:21;5.36;86.53
69543;SHT31;56762;49.494;11.768;2023-01-10T04:19:49;5.39;86.03
69543;SHT31;56762;49.494;11.768;2023-01-10T04:22:17;5.40;85.82
69543;SHT31;56762;49.494;11.768;2023-01-10T04:24:46;5.39;84.85
69543;SHT31;56762;49.494;11.768;2023-01-10T04:27:16;5.34;85.16
69543;SHT31;56762;49.494;11.768;2023-01-10T04:29:44;5.24;86.09
69543;SHT31;56762;49.494;11.768;2023-01-10T04:32:13;5.23;85.65
69543;SHT31;56762;49.494;11.768;2023-01-10T04:34:41;5.26;86.02
69543;SHT31;56762;49.494;11.768;2023-01-10T04:37:08;5.26;85.91
69543;SHT31;56762;49.494;11.768;2023-01-10T04:39:36;5.27;85.69
69543;SHT31;56762;49.494;11.768;2023-01-10T04:42:06;5.26;85.72
69543;SHT31;56762;49.494;11.768;2023-01-10T04:44:34;5.27;86.07
69543;SHT31;56762;49.494;11.768;2023-01-10T04:47:02;5.26;86.14
69543;SHT31;56762;49.494;11.768;2023-01-10T04:49:30;5.33;86.05
69543;SHT31;56762;49.494;11.768;2023-01-10T04:51:58;5.33;86.52
69543;SHT31;56762;49.494;11.768;2023-01-10T04:54:26;5.37;86.11
69543;SHT31;56762;49.494;11.768;2023-01-10T04:56:53;5.37;85.89
69543;SHT31;56762;49.494;11.768;2023-01-10T04:59:23;5.42;85.68
69543;SHT31;56762;49.494;11.768;2023-01-10T05:01:51;5.37;86.00
69543;SHT31;56762;49.494;11.768;2023-01-10T05:04:19;5.37;86.10
69543;SHT31;56762;49.494;11.768;2023-01-10T05:06:46;5.39;86.23
69543;SHT31;56762;49.494;11.768;2023-01-10T05:09:14;5.36;86.56
69543;SHT31;56762;49.494;11.768;2023-01-10T05:11:43;5.39;86.86
69543;SHT31;56762;49.494;11.768;2023-01-10T05:14:11;5.36;87.12
69543;SHT31;56762;49.494;11.768;2023-01-10T05:16:41;5.33;86.88
69543;SHT31;56762;49.494;11.768;2023-01-10T05:19:09;5.34;87.17
69543;SHT31;56762;49.494;11.768;2023-01-10T05:21:38;5.33;87.09
69543;SHT31;56762;49.494;11.768;2023-01-10T05:24:06;5.27;87.64
69543;SHT31;56762;49.494;11.768;2023-01-10T05:26:34;5.24;87.32
69543;SHT31;56762;49.494;11.768;2023-01-10T05:29:02;5.26;87.68
69543;SHT31;56762;49.494;11.768;2023-01-10T05:31:30;5.22;87.86
69543;SHT31;56762;49.494;11.768;2023-01-10T05:33:59;5.19;88.24
69543;SHT31;56762;49.494;11.768;2023-01-10T05:36:27;5.16;88.75
69543;SHT31;56762;49.494;11.768;2023-01-10T05:38:55;5.15;89.07
69543;SHT31;56762;49.494;11.768;2023-01-10T05:41:23;5.13;89.40
69543;SHT31;56762;49.494;11.768;2023-01-10T05:43:51;5.11;89.65
69543;SHT31;56762;49.494;11.768;2023-01-10T05:46:19;5.13;89.39
69543;SHT31;56762;49.494;11.768;2023-01-10T05:48:48;5.18;89.03
69543;SHT31;56762;49.494;11.768;2023-01-10T05:51:17;5.13;89.48
69543;SHT31;56762;49.494;11.768;2023-01-10T05:53:44;5.11;89.91
69543;SHT31;56762;49.494;11.768;2023-01-10T05:56:14;5.18;88.57
69543;SHT31;56762;49.494;11.768;2023-01-10T05:58:43;5.11;88.89
69543;SHT31;56762;49.494;11.768;2023-01-10T06:01:14;5.08;88.69
69543;SHT31;56762;49.494;11.768;2023-01-10T06:03:43;5.09;88.93
69543;SHT31;56762;49.494;11.768;2023-01-10T06:06:10;5.12;88.87
69543;SHT31;56762;49.494;11.768;2023-01-10T06:08:40;5.08;89.19
69543;SHT31;56762;49.494;11.768;2023-01-10T06:11:08;5.12;89.63
69543;SHT31;56762;49.494;11.768;2023-01-10T06:13:35;5.12;89.92
69543;SHT31;56762;49.494;11.768;2023-01-10T06:16:03;5.15;89.75
69543;SHT31;56762;49.494;11.768;2023-01-10T06:18:32;5.13;89.23
69543;SHT31;56762;49.494;11.768;2023-01-10T06:20:59;5.13;88.75
69543;SHT31;56762;49.494;11.768;2023-01-10T06:23:27;5.12;88.82
69543;SHT31;56762;49.494;11.768;2023-01-10T06:25:57;5.11;89.15
69543;SHT31;56762;49.494;11.768;2023-01-10T06:28:25;5.12;88.87
69543;SHT31;56762;49.494;11.768;2023-01-10T06:30:53;5.05;89.21
69543;SHT31;56762;49.494;11.768;2023-01-10T06:33:21;5.05;89.51
69543;SHT31;56762;49.494;11.768;2023-01-10T06:35:49;5.06;89.52
69543;SHT31;56762;49.494;11.768;2023-01-10T06:38:17;5.08;89.43
69543;SHT31;56762;49.494;11.768;2023-01-10T06:40:45;5.05;88.92
69543;SHT31;56762;49.494;11.768;2023-01-10T06:43:15;5.13;88.76
69543;SHT31;56762;49.494;11.768;2023-01-10T06:45:43;5.15;88.42
69543;SHT31;56762;49.494;11.768;2023-01-10T06:48:11;5.15;88.81
69543;SHT31;56762;49.494;11.768;2023-01-10T06:50:40;5.13;88.44
69543;SHT31;56762;49.494;11.768;2023-01-10T06:53:08;5.13;88.21
69543;SHT31;56762;49.494;11.768;2023-01-10T06:55:35;5.13;88.25
69543;SHT31;56762;49.494;11.768;2023-01-10T06:58:03;5.12;88.46
69543;SHT31;56762;49.494;11.768;2023-01-10T07:00:33;5.12;88.41
69543;SHT31;56762;49.494;11.768;2023-01-10T07:03:01;5.08;88.52
69543;SHT31;56762;49.494;11.768;2023-01-10T07:05:29;5.05;88.72
69543;SHT31;56762;49.494;11.768;2023-01-10T07:07:56;5.05;88.52
69543;SHT31;56762;49.494;11.768;2023-01-10T07:10:27;5.02;88.44
69543;SHT31;56762;49.494;11.768;2023-01-10T07:12:55;5.00;89.08
69543;SHT31;56762;49.494;11.768;2023-01-10T07:15:24;4.99;88.45
69543;SHT31;56762;49.494;11.768;2023-01-10T07:17:55;5.02;88.73
69543;SHT31;56762;49.494;11.768;2023-01-10T07:20:23;5.03;88.57
69543;SHT31;56762;49.494;11.768;2023-01-10T07:22:54;5.06;87.99
69543;SHT31;56762;49.494;11.768;2023-01-10T07:25:23;5.02;88.58
69543;SHT31;56762;49.494;11.768;2023-01-10T07:27:51;5.03;88.56
69543;SHT31;56762;49.494;11.768;2023-01-10T07:30:21;5.08;88.23
69543;SHT31;56762;49.494;11.768;2023-01-10T07:32:56;5.12;88.38
69543;SHT31;56762;49.494;11.768;2023-01-10T07:35:24;5.15;87.35
69543;SHT31;56762;49.494;11.768;2023-01-10T07:37:52;5.11;86.95
69543;SHT31;56762;49.494;11.768;2023-01-10T07:40:20;5.11;87.64
69543;SHT31;56762;49.494;11.768;2023-01-10T07:42:49;5.16;87.93
69543;SHT31;56762;49.494;11.768;2023-01-10T07:45:16;5.18;88.42
69543;SHT31;56762;49.494;11.768;2023-01-10T07:47:44;5.19;88.20
69543;SHT31;56762;49.494;11.768;2023-01-10T07:50:15;5.20;87.98
69543;SHT31;56762;49.494;11.768;2023-01-10T07:52:43;5.18;88.03
69543;SHT31;56762;49.494;11.768;2023-01-10T07:55:11;5.19;88.16
69543;SHT31;56762;49.494;11.768;2023-01-10T07:57:39;5.20;88.15
69543;SHT31;56762;49.494;11.768;2023-01-10T08:00:08;5.26;87.77
69543;SHT31;56762;49.494;11.768;2023-01-10T08:02:36;5.22;87.72
69543;SHT31;56762;49.494;11.768;2023-01-10T08:05:04;5.20;87.55
69543;SHT31;56762;49.494;11.768;2023-01-10T08:07:34;5.20;87.52
69543;SHT31;56762;49.494;11.768;2023-01-10T08:10:03;5.20;87.77
69543;SHT31;56762;49.494;11.768;2023-01-10T08:12:31;5.20;87.78
69543;SHT31;56762;49.494;11.768;2023-01-10T08:14:59;5.22;87.95
69543;SHT31;56762;49.494;11.768;2023-01-10T08:17:27;5.23;87.87
69543;SHT31;56762;49.494;11.768;2023-01-10T08:19:55;5.20;88.14
69543;SHT31;56762;49.494;11.768;2023-01-10T08:22:22;5.22;88.26
69543;SHT31;56762;49.494;11.768;2023-01-10T08:24:52;5.26;87.82
69543;SHT31;56762;49.494;11.768;2023-01-10T08:27:20;5.26;87.13
69543;SHT31;56762;49.494;11.768;2023-01-10T08:29:47;5.26;87.58
69543;SHT31;56762;49.494;11.768;2023-01-10T08:32:15;5.29;87.80
69543;SHT31;56762;49.494;11.768;2023-01-10T08:34:44;5.36;86.61
69543;SHT31;56762;49.494;11.768;2023-01-10T08:37:12;5.37;86.93
69543;SHT31;56762;49.494;11.768;2023-01-10T08:39:40;5.37;86.91
69543;SHT31;56762;49.494;11.768;2023-01-10T08:42:10;5.36;86.95
69543;SHT31;56762;49.494;11.768;2023-01-10T08:44:38;5.46;86.75
69543;SHT31;56762;49.494;11.768;2023-01-10T08:47:06;5.47;85.90
69543;SHT31;56762;49.494;11.768;2023-01-10T08:49:33;5.47;85.89
69543;SHT31;56762;49.494;11.768;2023-01-10T08:52:01;5.42;85.72
69543;SHT31;56762;49.494;11.768;2023-01-10T08:54:29;5.42;85.73
69543;SHT31;56762;49.494;11.768;2023-01-10T08:56:58;5.47;85.76
69543;SHT31;56762;49.494;11.768;2023-01-10T08:59:28;5.55;84.53
69543;SHT31;56762;49.494;11.768;2023-01-10T09:01:56;5.51;84.64
69543;SHT31;56762;49.494;11.768;2023-01-10T09:04:25;5.53;85.43
69543;SHT31;56762;49.494;11.768;2023-01-10T09:06:58;5.55;85.61
69543;SHT31;56762;49.494;11.768;2023-01-10T09:09:26;5.53;85.18
69543;SHT31;56762;49.494;11.768;2023-01-10T09:11:54;5.54;85.56
69543;SHT31;56762;49.494;11.768;2023-01-10T09:14:23;5.57;85.17
69543;SHT31;56762;49.494;11.768;2023-01-10T09:16:52;5.53;85.17
69543;SHT31;56762;49.494;11.768;2023-01-10T09:19:19;5.51;85.75
69543;SHT31;56762;49.494;11.768;2023-01-10T09:21:48;5.51;85.75
69543;SHT31;56762;49.494;11.768;2023-01-10T09:24:16;5.57;85.32
69543;SHT31;56762;49.494;11.768;2023-01-10T09:26:45;5.51;86.02
69543;SHT31;56762;49.494;11.768;2023-01-10T09:29:13;5.47;86.85
69543;SHT31;56762;49.494;11.768;2023-01-10T09:31:40;5.51;86.02
69543;SHT31;56762;49.494;11.768;2023-01-10T09:34:10;5.53;85.97
69543;SHT31;56762;49.494;11.768;2023-01-10T09:36:38;5.50;85.96
69543;SHT31;56762;49.494;11.768;2023-01-10T09:39:06;5.46;86.36
69543;SHT31;56762;49.494;11.768;2023-01-10T09:41:52;5.48;86.92
69543;SHT31;56762;49.494;11.768;2023-01-10T09:44:29;5.51;86.30
69543;SHT31;56762;49.494;11.768;2023-01-10T09:47:09;5.57;86.41
69543;SHT31;56762;49.494;11.768;2023-01-10T09:49:58;5.61;84.06
69543;SHT31;56762;49.494;11.768;2023-01-10T09:52:31;5.64;84.70
69543;SHT31;56762;49.494;11.768;2023-01-10T09:55:13;5.63;84.90
69543;SHT31;56762;49.494;11.768;2023-01-10T09:57:43;5.70;84.80
69543;SHT31;56762;49.494;11.768;2023-01-10T10:00:16;5.74;84.98
69543;SHT31;56762;49.494;11.768;2023-01-10T10:02:47;5.74;85.25
69543;SHT31;56762;49.494;11.768;2023-01-10T10:05:21;5.81;85.52
69543;SHT31;56762;49.494;11.768;2023-01-10T10:07:53;5.84;84.52
69543;SHT31;56762;49.494;11.768;2023-01-10T10:10:23;5.84;84.01
69543;SHT31;56762;49.494;11.768;2023-01-10T10:12:59;5.92;84.43
69543;SHT31;56762;49.494;11.768;2023-01-10T10:15:38;5.92;83.99
69543;SHT31;56762;49.494;11.768;2023-01-10T10:18:20;5.97;84.50
69543;SHT31;56762;49.494;11.768;2023-01-10T10:20:57;5.98;85.01
69543;SHT31;56762;49.494;11.768;2023-01-10T10:23:38;6.01;84.74
69543;SHT31;56762;49.494;11.768;2023-01-10T10:26:12;6.01;84.24
69543;SHT31;56762;49.494;11.768;2023-01-10T10:29:04;6.02;84.04
69543;SHT31;56762;49.494;11.768;2023-01-10T10:31:43;6.02;84.46
69543;SHT31;56762;49.494;11.768;2023-01-10T10:34:22;6.02;84.04
69543;SHT31;56762;49.494;11.768;2023-01-10T10:36:53;6.09;83.98
69543;SHT31;56762;49.494;11.768;2023-01-10T10:39:30;6.18;83.14
69543;SHT31;56762;49.494;11.768;2023-01-10T10:42:02;6.19;82.41
69543;SHT31;56762;49.494;11.768;2023-01-10T10:44:35;6.19;82.72
69543;SHT31;56762;49.494;11.768;2023-01-10T10:47:11;6.19;82.35
69543;SHT31;56762;49.494;11.768;2023-01-10T10:49:42;6.18;82.57
69543;SHT31;56762;49.494;11.768;2023-01-10T10:52:18;6.18;82.74
69543;SHT31;56762;49.494;11.768;2023-01-10T10:54:48;6.19;81.67
69543;SHT31;56762;49.494;11.768;2023-01-10T10:57:18;6.21;81.72
69543;SHT31;56762;49.494;11.768;2023-01-10T10:59:47;6.25;82.16
69543;SHT31;56762;49.494;11.768;2023-01-10T11:02:21;6.32;82.18
69543;SHT31;56762;49.494;11.768;2023-01-10T11:04:52;6.36;81.82
69543;SHT31;56762;49.494;11.768;2023-01-10T11:07:22;6.33;82.31
69543;SHT31;56762;49.494;11.768;2023-01-10T11:09:52;6.35;82.02
69543;SHT31;56762;49.494;11.768;2023-01-10T11:12:37;6.30;81.73
69543;SHT31;56762;49.494;11.768;2023-01-10T11:15:08;6.22;81.19
69543;SHT31;56762;49.494;11.768;2023-01-10T11:17:36;6.23;81.05
69543;SHT31;56762;49.494;11.768;2023-01-10T11:20:13;6.16;81.86
69543;SHT31;56762;49.494;11.768;2023-01-10T11:22:47;6.13;81.54
69543;SHT31;56762;49.494;11.768;2023-01-10T11:25:17;6.08;81.41
69543;SHT31;56762;49.494;11.768;2023-01-10T11:27:48;6.11;81.40
69543;SHT31;56762;49.494;11.768;2023-01-10T11:30:19;6.15;81.96
69543;SHT31;56762;49.494;11.768;2023-01-10T11:32:51;6.26;80.29
69543;SHT31;56762;49.494;11.768;2023-01-10T11:35:22;6.21;79.91
69543;SHT31;56762;49.494;11.768;2023-01-10T11:38:01;6.23;80.85
69543;SHT31;56762;49.494;11.768;2023-01-10T11:40:30;6.23;81.58
69543;SHT31;56762;49.494;11.768;2023-01-10T11:42:59;6.29;81.34
69543;SHT31;56762;49.494;11.768;2023-01-10T11:45:29;6.32;81.66
69543;SHT31;56762;49.494;11.768;2023-01-10T11:48:05;6.30;80.93
69543;SHT31;56762;49.494;11.768;2023-01-10T11:50:35;6.35;80.03
69543;SHT31;56762;49.494;11.768;2023-01-10T11:53:06;6.30;80.56
69543;SHT31;56762;49.494;11.768;2023-01-10T11:55:36;6.35;80.38
69543;SHT31;56762;49.494;11.768;2023-01-10T11:58:06;6.36;81.13
69543;SHT31;56762;49.494;11.768;2023-01-10T12:00:38;6.44;80.56
69543;SHT31;56762;49.494;11.768;2023-01-10T12:03:15;6.52;80.26
69543;SHT31;56762;49.494;11.768;2023-01-10T12:05:49;6.54;80.55
69543;SHT31;56762;49.494;11.768;2023-01-10T12:08:37;6.60;78.38
69543;SHT31;56762;49.494;11.768;2023-01-10T12:11:23;6.64;78.92
69543;SHT31;56762;49.494;11.768;2023-01-10T12:13:54;6.72;78.53
69543;SHT31;56762;49.494;11.768;2023-01-10T12:16:25;6.67;78.39
69543;SHT31;56762;49.494;11.768;2023-01-10T12:18:57;6.72;77.98
69543;SHT31;56762;49.494;11.768;2023-01-10T12:21:30;6.66;77.70
69543;SHT31;56762;49.494;11.768;2023-01-10T12:24:03;6.64;77.77
69543;SHT31;56762;49.494;11.768;2023-01-10T12:26:33;6.69;77.56
69543;SHT31;56762;49.494;11.768;2023-01-10T12:29:06;6.64;76.26
69543;SHT31;56762;49.494;11.768;2023-01-10T12:31:38;6.62;75.07
69543;SHT31;56762;49.494;11.768;2023-01-10T12:34:13;6.64;76.83
69543;SHT31;56762;49.494;11.768;2023-01-10T12:36:49;6.62;75.40
69543;SHT31;56762;49.494;11.768;2023-01-10T12:39:21;6.54;77.04
69543;SHT31;56762;49.494;11.768;2023-01-10T12:41:56;6.56;77.62
69543;SHT31;56762;49.494;11.768;2023-01-10T12:44:43;6.60;76.94
69543;SHT31;56762;49.494;11.768;2023-01-10T12:47:21;6.53;77.35
69543;SHT31;56762;49.494;11.768;2023-01-10T12:49:54;6.50;77.05
69543;SHT31;56762;49.494;11.768;2023-01-10T12:52:29;6.54;76.04
69543;SHT31;56762;49.494;11.768;2023-01-10T12:54:59;6.46;76.76
69543;SHT31;56762;49.494;11.768;2023-01-10T12:57:31;6.47;75.89
69543;SHT31;56762;49.494;11.768;2023-01-10T13:00:04;6.46;76.51
69543;SHT31;56762;49.494;11.768;2023-01-10T13:02:38;6.39;75.67
69543;SHT31;56762;49.494;11.768;2023-01-10T13:05:17;6.37;77.37
69543;SHT31;56762;49.494;11.768;2023-01-10T13:07:46;6.37;75.57
69543;SHT31;56762;49.494;11.768;2023-01-10T13:10:20;6.39;76.80
69543;SHT31;56762;49.494;11.768;2023-01-10T13:12:52;6.39;76.48
69543;SHT31;56762;49.494;11.768;2023-01-10T13:15:26;6.42;77.37
69543;SHT31;56762;49.494;11.768;2023-01-10T13:17:59;6.44;75.96
69543;SHT31;56762;49.494;11.768;2023-01-10T13:20:38;6.39;77.40
69543;SHT31;56762;49.494;11.768;2023-01-10T13:23:20;6.36;76.58
69543;SHT31;56762;49.494;11.768;2023-01-10T13:25:55;6.30;76.23
69543;SHT31;56762;49.494;11.768;2023-01-10T13:28:25;6.26;75.80
69543;SHT31;56762;49.494;11.768;2023-01-10T13:30:55;6.22;76.21
69543;SHT31;56762;49.494;11.768;2023-01-10T13:33:26;6.18;76.59
69543;SHT31;56762;49.494;11.768;2023-01-10T13:35:58;6.15;76.93
69543;SHT31;56762;49.494;11.768;2023-01-10T13:38:37;6.11;77.05
69543;SHT31;56762;49.494;11.768;2023-01-10T13:41:08;6.05;77.28
69543;SHT31;56762;49.494;11.768;2023-01-10T13:44:06;6.05;76.70
69543;SHT31;56762;49.494;11.768;2023-01-10T13:46:39;5.99;77.31
69543;SHT31;56762;49.494;11.768;2023-01-10T13:52:29;5.97;77.36
69543;SHT31;56762;49.494;11.768;2023-01-10T13:54:59;5.92;77.44
69543;SHT31;56762;49.494;11.768;2023-01-10T13:57:50;5.91;76.97
69543;SHT31;56762;49.494;11.768;2023-01-10T14:03:39;5.87;77.00
69543;SHT31;56762;49.494;11.768;2023-01-10T14:06:13;5.81;77.28
69543;SHT31;56762;49.494;11.768;2023-01-10T14:08:48;5.77;77.27
69543;SHT31;56762;49.494;11.768;2023-01-10T14:11:17;5.75;77.59
69543;SHT31;56762;49.494;11.768;2023-01-10T14:13:50;5.74;78.13
69543;SHT31;56762;49.494;11.768;2023-01-10T14:16:30;5.68;78.36
69543;SHT31;56762;49.494;11.768;2023-01-10T14:18:59;5.63;78.07
69543;SHT31;56762;49.494;11.768;2023-01-10T14:21:29;5.64;78.55
69543;SHT31;56762;49.494;11.768;2023-01-10T14:23:57;5.63;78.84
69543;SHT31;56762;49.494;11.768;2023-01-10T14:26:30;5.67;78.93
69543;SHT31;56762;49.494;11.768;2023-01-10T14:29:05;5.64;78.78
69543;SHT31;56762;49.494;11.768;2023-01-10T14:31:35;5.64;79.10
69543;SHT31;56762;49.494;11.768;2023-01-10T14:34:08;5.64;79.18
69543;SHT31;56762;49.494;11.768;2023-01-10T14:36:43;5.71;79.13
69543;SHT31;56762;49.494;11.768;2023-01-10T14:39:12;5.67;79.43
69543;SHT31;56762;49.494;11.768;2023-01-10T14:41:43;5.70;79.21
69543;SHT31;56762;49.494;11.768;2023-01-10T14:44:16;5.67;79.13
69543;SHT31;56762;49.494;11.768;2023-01-10T14:46:47;5.67;79.76
69543;SHT31;56762;49.494;11.768;2023-01-10T14:49:20;5.67;79.50
69543;SHT31;56762;49.494;11.768;2023-01-10T14:51:49;5.65;79.94
69543;SHT31;56762;49.494;11.768;2023-01-10T14:54:19;5.64;79.87
69543;SHT31;56762;49.494;11.768;2023-01-10T14:56:52;5.63;79.69
69543;SHT31;56762;49.494;11.768;2023-01-10T14:59:26;5.60;80.12
69543;SHT31;56762;49.494;11.768;2023-01-10T15:01:58;5.48;80.19
69543;SHT31;56762;49.494;11.768;2023-01-10T15:04:29;5.47;80.53
69543;SHT31;56762;49.494;11.768;2023-01-10T15:07:00;5.47;80.94
69543;SHT31;56762;49.494;11.768;2023-01-10T15:09:30;5.43;81.06
69543;SHT31;56762;49.494;11.768;2023-01-10T15:12:00;5.44;80.77
69543;SHT31;56762;49.494;11.768;2023-01-10T15:14:31;5.47;80.87
69543;SHT31;56762;49.494;11.768;2023-01-10T15:17:00;5.43;80.86
69543;SHT31;56762;49.494;11.768;2023-01-10T15:19:31;5.48;80.61
69543;SHT31;56762;49.494;11.768;2023-01-10T15:22:00;5.42;81.01
69543;SHT31;56762;49.494;11.768;2023-01-10T15:24:32;5.39;80.93
69543;SHT31;56762;49.494;11.768;2023-01-10T15:27:02;5.39;80.73
69543;SHT31;56762;49.494;11.768;2023-01-10T15:29:33;5.32;81.45
69543;SHT31;56762;49.494;11.768;2023-01-10T15:32:07;5.32;81.10
69543;SHT31;56762;49.494;11.768;2023-01-10T15:34:37;5.29;81.05
69543;SHT31;56762;49.494;11.768;2023-01-10T15:37:14;5.26;81.12
69543;SHT31;56762;49.494;11.768;2023-01-10T15:39:45;5.23;81.81
69543;SHT31;56762;49.494;11.768;2023-01-10T15:42:13;5.23;81.93
69543;SHT31;56762;49.494;11.768;2023-01-10T15:44:43;5.23;82.13
69543;SHT31;56762;49.494;11.768;2023-01-10T15:47:33;5.20;81.91
69543;SHT31;56762;49.494;11.768;2023-01-10T15:50:14;5.19;82.33
69543;SHT31;56762;49.494;11.768;2023-01-10T15:52:46;5.16;82.17
69543;SHT31;56762;49.494;11.768;2023-01-10T15:55:38;5.15;81.90
69543;SHT31;56762;49.494;11.768;2023-01-10T15:58:15;5.13;82.05
69543;SHT31;56762;49.494;11.768;2023-01-10T16:00:47;5.13;81.37
69543;SHT31;56762;49.494;11.768;2023-01-10T16:03:22;5.18;81.38
69543;SHT31;56762;49.494;11.768;2023-01-10T16:05:52;5.15;81.37
69543;SHT31;56762;49.494;11.768;2023-01-10T16:08:22;5.19;81.42
69543;SHT31;56762;49.494;11.768;2023-01-10T16:10:53;5.19;81.47
69543;SHT31;56762;49.494;11.768;2023-01-10T16:13:22;5.13;81.41
69543;SHT31;56762;49.494;11.768;2023-01-10T16:16:01;5.15;81.37